Airfield :
LOGIN :

Register | Disclaimer

   EN    FR    IT 

 










Legend :    VFR   Marginal VFR   IFR   Intensive IFR   Very Intensive IFR
Visi :
Ceiling :
>= 8 km
>= 3000ft
5 to 8 km
1000 to 3000 ft
1500m to 5 km
500 to 1000 ft
800 to 1500m
200 to 500 ft
< 800m
< 200 ft
Symbols :   Thunderstorms  Fog  Heavy snow  Heavy precipitations  Wind > 20 kt
SIGMETs :     Misc.  Thunderstorms  Icing  Turbulence  Mountain Waves  Volcanic Ashes






- Airport Elevation : 117 ft
- IATA code : NWI


EGSH - Norwich

CURRENT METAR :
  • 200850Z 20010KT 9999 FEW013 SCT040 BKN049 14/12 Q1002

EXPIRED METARs :
  • 200820Z 19009KT 9999 SCT032 BKN038 13/12 Q1002 NOSIG
  • 200750Z 19009KT 160V220 9999 -RA FEW014 SCT025 BKN030 13/12 Q1002 NOSIG
  • 200720Z 20010KT 160V230 9999 -RA FEW009 SCT030 BKN037 13/11 Q1002 TENPO BKN010
  • 200650Z 19013KT 9999 -RA FEW010 SCT030 BKN045 12/11 Q1002
  • 200620Z AUTO 19012KT 160V220 9999 -RA SCT048/// 12/11 Q1001 TEMPO RA

TAF TAF EGSH
Valid from the 20 at 09:00 until the 20 at 18:00 UTC


200844Z 2009/2018 18010KT 9999 FEW035
PROB30
TEMPO 2009/2011 8000 -RA BKN014
ATIS : +44 1603 420 640



MET'MAP, your aeronautical weather chart ! - Copyright ORBIFLY December 2007 - Disclaimer

ORBIFLY MET'MAP TEAM :

Programming & Development : Alexandra Zaïnal
Concept & original design : Baudouin d'Aumeries
Assistance for programming : Marc-Olivier Méhu
Technical & hardware support : Manuel Goepfert

Contact : metmap@orbifly.com




SOURCES & CREDITS :

   NOAA